createdAt,value
2019-02-08T00:00:24.139Z,0
2019-02-08T00:01:24.752Z,0
2019-02-08T00:02:24.410Z,0
2019-02-08T00:03:24.248Z,0
2019-02-08T00:04:24.225Z,0
2019-02-08T00:05:24.226Z,0
2019-02-08T00:06:24.197Z,0
2019-02-08T00:07:24.186Z,0
2019-02-08T00:08:24.200Z,0
2019-02-08T00:09:25.223Z,0
2019-02-08T00:10:24.108Z,0
2019-02-08T00:11:24.085Z,0
2019-02-08T00:12:24.588Z,0
2019-02-08T00:13:24.058Z,0
2019-02-08T00:14:24.075Z,0
2019-02-08T00:15:23.836Z,0
2019-02-08T00:16:24.757Z,0
2019-02-08T00:17:23.768Z,0
2019-02-08T00:18:23.731Z,0
2019-02-08T00:19:23.942Z,0
2019-02-08T00:20:24.036Z,0
2019-02-08T00:21:23.948Z,0
2019-02-08T00:22:23.941Z,0
2019-02-08T00:23:35.741Z,0
2019-02-08T00:24:24.418Z,0
2019-02-08T00:25:23.925Z,0
2019-02-08T00:26:23.884Z,0
2019-02-08T00:27:23.809Z,0
2019-02-08T00:28:23.686Z,0
2019-02-08T00:29:23.806Z,0
2019-02-08T00:30:23.537Z,0
2019-02-08T00:31:24.437Z,0
2019-02-08T00:32:24.072Z,0
2019-02-08T00:33:23.690Z,0
2019-02-08T00:34:23.682Z,0
2019-02-08T00:35:23.677Z,0
2019-02-08T00:36:23.658Z,0
2019-02-08T00:37:23.381Z,0
2019-02-08T00:38:23.665Z,0
2019-02-08T00:39:23.915Z,0
2019-02-08T00:40:23.574Z,0
2019-02-08T00:41:23.542Z,0
2019-02-08T00:42:23.517Z,0
2019-02-08T00:43:23.507Z,0
2019-02-08T00:44:23.243Z,0
2019-02-08T00:45:23.486Z,0
2019-02-08T00:46:24.035Z,0
2019-02-08T00:47:23.728Z,0
2019-02-08T00:48:23.180Z,0
2019-02-08T00:49:23.401Z,0
2019-02-08T00:50:23.383Z,0
2019-02-08T00:51:23.380Z,0
2019-02-08T00:52:22.835Z,0
2019-02-08T00:53:23.556Z,0
2019-02-08T00:54:23.868Z,0
2019-02-08T00:55:23.290Z,0
2019-02-08T00:56:23.022Z,0
2019-02-08T00:57:23.263Z,0
2019-02-08T00:58:23.239Z,0
2019-02-08T00:59:22.973Z,0
2019-02-08T01:00:23.234Z,0
2019-02-08T01:01:23.794Z,0
2019-02-08T01:02:23.156Z,0
2019-02-08T01:03:23.141Z,0
2019-02-08T01:04:22.879Z,0
2019-02-08T01:05:23.115Z,0
2019-02-08T01:06:23.095Z,0
2019-02-08T01:07:23.155Z,0
2019-02-08T01:08:23.148Z,0
2019-02-08T01:09:23.715Z,0
2019-02-08T01:10:22.780Z,0
2019-02-08T01:11:23.021Z,0
2019-02-08T01:12:22.975Z,0
2019-02-08T01:13:22.982Z,0
2019-02-08T01:14:22.959Z,0
2019-02-08T01:15:22.932Z,0
2019-02-08T01:16:23.490Z,0
2019-02-08T01:17:22.909Z,0
2019-02-08T01:18:22.875Z,0
2019-02-08T01:19:22.859Z,0
2019-02-08T01:20:22.849Z,0
2019-02-08T01:21:22.580Z,0
2019-02-08T01:22:22.809Z,0
2019-02-08T01:23:23.324Z,0
2019-02-08T01:24:22.758Z,0
2019-02-08T01:25:22.509Z,0
2019-02-08T01:26:22.719Z,0
2019-02-08T01:27:22.452Z,0
2019-02-08T01:28:22.458Z,0
2019-02-08T01:29:22.661Z,0
2019-02-08T01:30:22.646Z,0
2019-02-08T01:31:22.633Z,0
2019-02-08T01:32:22.364Z,0
2019-02-08T01:33:22.589Z,0
2019-02-08T01:34:22.583Z,0
2019-02-08T01:35:22.314Z,0
2019-02-08T01:36:22.297Z,0
2019-02-08T01:37:22.529Z,0
2019-02-08T01:38:22.514Z,0
2019-02-08T01:39:21.990Z,0
2019-02-08T01:40:22.226Z,0
2019-02-08T01:41:22.449Z,0
2019-02-08T01:42:22.438Z,0
2019-02-08T01:43:22.412Z,0
2019-02-08T01:44:22.172Z,0
2019-02-08T01:45:22.383Z,0
2019-02-08T01:46:22.127Z,0
2019-02-08T01:47:22.353Z,0
2019-02-08T01:48:22.462Z,0
2019-02-08T01:49:22.320Z,0
2019-02-08T01:50:22.293Z,0
2019-02-08T01:51:22.277Z,0
2019-02-08T01:52:22.300Z,0
2019-02-08T01:53:22.263Z,0
2019-02-08T01:54:22.233Z,0
2019-02-08T01:55:22.240Z,0
2019-02-08T01:56:21.940Z,0
2019-02-08T01:57:21.927Z,0
2019-02-08T01:58:21.902Z,0
2019-02-08T01:59:21.884Z,0
2019-02-08T02:00:21.895Z,0
2019-02-08T02:01:22.103Z,0
2019-02-08T02:02:22.083Z,0
2019-02-08T02:03:21.814Z,0
2019-02-08T02:04:21.797Z,0
2019-02-08T02:05:22.026Z,0
2019-02-08T02:06:21.761Z,0
2019-02-08T02:07:21.251Z,0
2019-02-08T02:08:21.977Z,0
2019-02-08T02:09:21.961Z,0
2019-02-08T02:10:21.947Z,0
2019-02-08T02:11:21.935Z,0
2019-02-08T02:12:21.675Z,0
2019-02-08T02:13:21.394Z,0
2019-02-08T02:14:21.873Z,0
2019-02-08T02:15:21.876Z,0
2019-02-08T02:16:21.843Z,0
2019-02-08T02:17:21.568Z,0
2019-02-08T02:18:21.555Z,0
2019-02-08T02:19:21.538Z,0
2019-02-08T02:20:21.770Z,0
2019-02-08T02:21:21.759Z,0
2019-02-08T02:22:21.483Z,0
2019-02-08T02:23:21.781Z,0
2019-02-08T02:24:21.495Z,0
2019-02-08T02:25:21.715Z,0
2019-02-08T02:26:21.411Z,0
2019-02-08T02:27:21.393Z,0
2019-02-08T02:28:21.645Z,0
2019-02-08T02:29:21.613Z,0
2019-02-08T02:30:21.599Z,0
2019-02-08T02:31:21.582Z,0
2019-02-08T02:32:21.068Z,0
2019-02-08T02:33:21.355Z,0
2019-02-08T02:34:21.289Z,0
2019-02-08T02:35:21.556Z,0
2019-02-08T02:36:21.247Z,0
2019-02-08T02:37:21.477Z,0
2019-02-08T02:38:21.465Z,0
2019-02-08T02:39:21.459Z,0
2019-02-08T02:40:21.444Z,0
2019-02-08T02:41:21.152Z,0
2019-02-08T02:42:21.377Z,0
2019-02-08T02:43:21.114Z,0
2019-02-08T02:44:21.353Z,0
2019-02-08T02:45:21.326Z,0
2019-02-08T02:46:21.141Z,0
2019-02-08T02:47:21.088Z,0
2019-02-08T02:48:20.542Z,0
2019-02-08T02:49:21.252Z,0
2019-02-08T02:50:21.234Z,0
2019-02-08T02:51:21.240Z,0
2019-02-08T02:52:20.979Z,0
2019-02-08T02:53:21.234Z,0
2019-02-08T02:54:21.171Z,0
2019-02-08T02:55:21.153Z,0
2019-02-08T02:56:21.133Z,0
2019-02-08T02:57:21.119Z,0
2019-02-08T02:58:21.104Z,0
2019-02-08T02:59:21.081Z,0
2019-02-08T03:00:20.812Z,0
2019-02-08T03:01:21.055Z,0
2019-02-08T03:02:20.794Z,0
2019-02-08T03:03:20.772Z,0
2019-02-08T03:04:20.998Z,0
2019-02-08T03:05:20.983Z,0
2019-02-08T03:06:20.959Z,0
2019-02-08T03:07:20.715Z,0
2019-02-08T03:08:20.978Z,0
2019-02-08T03:09:20.912Z,0
2019-02-08T03:10:20.522Z,0
2019-02-08T03:11:20.388Z,0
2019-02-08T03:12:20.855Z,0
2019-02-08T03:13:20.892Z,0
2019-02-08T03:14:20.825Z,0
2019-02-08T03:15:20.300Z,0
2019-02-08T03:16:20.785Z,0
2019-02-08T03:17:20.776Z,0
2019-02-08T03:18:20.774Z,0
2019-02-08T03:19:20.478Z,0
2019-02-08T03:20:21.550Z,0
2019-02-08T03:21:20.458Z,0
2019-02-08T03:22:20.670Z,0
2019-02-08T03:23:20.655Z,0
2019-02-08T03:24:22.617Z,0
2019-02-08T03:25:20.643Z,0
2019-02-08T03:26:20.681Z,0
2019-02-08T03:27:20.587Z,0
2019-02-08T03:28:20.334Z,0
2019-02-08T03:29:20.550Z,0
2019-02-08T03:30:20.554Z,0
2019-02-08T03:31:20.370Z,0
2019-02-08T03:32:20.605Z,0
2019-02-08T03:33:20.649Z,0
2019-02-08T03:34:20.507Z,0
2019-02-08T03:35:19.953Z,0
2019-02-08T03:36:20.479Z,0
2019-02-08T03:37:20.411Z,0
2019-02-08T03:38:20.428Z,0
2019-02-08T03:39:20.397Z,0
2019-02-08T03:40:20.414Z,0
2019-02-08T03:41:20.348Z,0
2019-02-08T03:42:20.340Z,0
2019-02-08T03:43:20.311Z,0
2019-02-08T03:44:20.319Z,0
2019-02-08T03:45:20.281Z,0
2019-02-08T03:46:20.361Z,0
2019-02-08T03:47:20.249Z,0
2019-02-08T03:48:20.231Z,0
2019-02-08T03:49:20.258Z,0
2019-02-08T03:50:19.943Z,0
2019-02-08T03:51:19.920Z,0
2019-02-08T03:52:20.180Z,0
2019-02-08T03:53:20.157Z,0
2019-02-08T03:54:28.008Z,0
2019-02-08T03:55:20.117Z,0
2019-02-08T03:56:19.825Z,0
2019-02-08T03:57:19.815Z,0
2019-02-08T03:58:20.064Z,0
2019-02-08T03:59:20.019Z,0
2019-02-08T04:00:19.759Z,0
2019-02-08T04:01:19.991Z,0
2019-02-08T04:02:20.434Z,0
2019-02-08T04:03:19.458Z,0
2019-02-08T04:04:19.436Z,0
2019-02-08T04:05:19.927Z,0
2019-02-08T04:06:19.897Z,0
2019-02-08T04:07:19.907Z,0
2019-02-08T04:08:19.869Z,0
2019-02-08T04:09:19.893Z,0
2019-02-08T04:10:19.826Z,0
2019-02-08T04:11:19.814Z,0
2019-02-08T04:12:19.541Z,0
2019-02-08T04:13:19.780Z,0
2019-02-08T04:14:19.765Z,0
2019-02-08T04:15:19.750Z,0
2019-02-08T04:16:19.752Z,0
2019-02-08T04:17:19.710Z,0
2019-02-08T04:18:19.697Z,0
2019-02-08T04:19:19.672Z,0
2019-02-08T04:20:19.721Z,0
2019-02-08T04:21:19.635Z,0
2019-02-08T04:22:19.366Z,0
2019-02-08T04:23:19.354Z,0
2019-02-08T04:24:19.584Z,0
2019-02-08T04:25:19.316Z,0
2019-02-08T04:26:19.549Z,0
2019-02-08T04:27:19.531Z,0
2019-02-08T04:28:19.547Z,0
2019-02-08T04:29:19.489Z,0
2019-02-08T04:30:19.476Z,0
2019-02-08T04:31:19.215Z,0
2019-02-08T04:32:19.433Z,0
2019-02-08T04:33:19.180Z,0
2019-02-08T04:34:19.488Z,0
2019-02-08T04:35:19.145Z,0
2019-02-08T04:36:19.433Z,0
2019-02-08T04:37:19.388Z,0
2019-02-08T04:38:20.922Z,0
2019-02-08T04:39:19.312Z,0
2019-02-08T04:40:19.338Z,0
2019-02-08T04:41:19.037Z,0
2019-02-08T04:42:19.017Z,0
2019-02-08T04:43:19.251Z,0
2019-02-08T04:44:19.230Z,0
2019-02-08T04:45:19.223Z,0
2019-02-08T04:46:19.186Z,0
2019-02-08T04:47:19.174Z,0
2019-02-08T04:48:18.900Z,0
2019-02-08T04:49:19.145Z,0
2019-02-08T04:50:19.117Z,0
2019-02-08T04:51:18.859Z,0
2019-02-08T04:52:19.098Z,0
2019-02-08T04:53:19.072Z,0
2019-02-08T04:54:19.058Z,0
2019-02-08T04:55:19.062Z,0
2019-02-08T04:56:19.038Z,0
2019-02-08T04:57:18.997Z,0
2019-02-08T04:58:18.993Z,0
2019-02-08T04:59:18.972Z,0
2019-02-08T05:00:19.641Z,0
2019-02-08T05:01:18.704Z,0
2019-02-08T05:02:18.921Z,0
2019-02-08T05:03:18.660Z,0
2019-02-08T05:04:18.677Z,0
2019-02-08T05:05:18.356Z,0
2019-02-08T05:06:18.497Z,0
2019-02-08T05:07:18.831Z,0
2019-02-08T05:08:18.824Z,0
2019-02-08T05:09:18.552Z,0
2019-02-08T05:10:18.523Z,0
2019-02-08T05:11:18.507Z,0
2019-02-08T05:12:18.744Z,0
2019-02-08T05:13:18.479Z,0
2019-02-08T05:14:18.707Z,0
2019-02-08T05:15:18.676Z,0
2019-02-08T05:16:18.443Z,0
2019-02-08T05:17:18.397Z,0
2019-02-08T05:18:18.415Z,0
2019-02-08T05:19:18.628Z,0
2019-02-08T05:20:18.602Z,0
2019-02-08T05:21:18.495Z,0
2019-02-08T05:22:18.563Z,0
2019-02-08T05:23:18.542Z,0
2019-02-08T05:24:18.520Z,0
2019-02-08T05:25:18.500Z,0
2019-02-08T05:26:18.244Z,0
2019-02-08T05:27:18.221Z,0
2019-02-08T05:28:18.459Z,0
2019-02-08T05:29:17.938Z,0
2019-02-08T05:30:18.431Z,0
2019-02-08T05:31:18.403Z,0
2019-02-08T05:32:18.133Z,0
2019-02-08T05:33:18.379Z,0
2019-02-08T05:34:18.356Z,0
2019-02-08T05:35:18.115Z,0
2019-02-08T05:36:18.334Z,0
2019-02-08T05:37:18.082Z,0
2019-02-08T05:38:18.027Z,0
2019-02-08T05:39:17.764Z,0
2019-02-08T05:40:18.242Z,0
2019-02-08T05:41:17.977Z,0
2019-02-08T05:42:18.203Z,0
2019-02-08T05:43:18.189Z,0
2019-02-08T05:44:17.924Z,0
2019-02-08T05:45:18.155Z,0
2019-02-08T05:46:18.184Z,0
2019-02-08T05:47:18.121Z,0
2019-02-08T05:48:18.115Z,0
2019-02-08T05:49:18.083Z,0
2019-02-08T05:50:17.831Z,0
2019-02-08T05:51:18.048Z,0
2019-02-08T05:52:18.036Z,0
2019-02-08T05:53:17.809Z,0
2019-02-08T05:54:17.784Z,0
2019-02-08T05:55:17.733Z,0
2019-02-08T05:56:17.714Z,0
2019-02-08T05:57:17.703Z,0
2019-02-08T05:58:17.929Z,0
2019-02-08T05:59:17.655Z,0
2019-02-08T06:00:17.637Z,0
2019-02-08T06:01:17.629Z,0
2019-02-08T06:02:17.868Z,0
2019-02-08T06:03:17.626Z,0
2019-02-08T06:04:17.819Z,0
2019-02-08T06:05:17.560Z,0
2019-02-08T06:06:17.313Z,0
2019-02-08T06:07:17.764Z,0
2019-02-08T06:08:17.744Z,0
2019-02-08T06:09:17.772Z,0
2019-02-08T06:10:17.710Z,0
2019-02-08T06:11:17.454Z,0
2019-02-08T06:12:17.687Z,0
2019-02-08T06:13:17.677Z,0
2019-02-08T06:14:17.519Z,0
2019-02-08T06:15:17.379Z,0
2019-02-08T06:16:17.627Z,0
2019-02-08T06:17:17.428Z,0
2019-02-08T06:18:17.589Z,0
2019-02-08T06:19:17.563Z,0
2019-02-08T06:20:17.540Z,0
2019-02-08T06:21:17.270Z,0
2019-02-08T06:22:17.269Z,0
2019-02-08T06:23:17.492Z,0
2019-02-08T06:24:17.470Z,0
2019-02-08T06:25:17.485Z,0
2019-02-08T06:26:17.440Z,0
2019-02-08T06:27:17.175Z,0
2019-02-08T06:28:17.403Z,0
2019-02-08T06:29:17.139Z,0
2019-02-08T06:30:17.364Z,0
2019-02-08T06:31:17.347Z,0
2019-02-08T06:32:17.481Z,5
2019-02-08T06:33:17.075Z,5
2019-02-08T06:34:17.059Z,5
2019-02-08T06:35:17.036Z,5
2019-02-08T06:36:17.005Z,5
2019-02-08T06:37:17.244Z,5
2019-02-08T06:38:17.221Z,10
2019-02-08T06:39:17.212Z,10
2019-02-08T06:40:17.183Z,10
2019-02-08T06:41:17.175Z,10
2019-02-08T06:42:16.911Z,10
2019-02-08T06:43:17.143Z,10
2019-02-08T06:44:16.914Z,10
2019-02-08T06:45:17.106Z,10
2019-02-08T06:46:16.914Z,10
2019-02-08T06:47:17.081Z,10
2019-02-08T06:48:16.807Z,10
2019-02-08T06:49:17.039Z,15
2019-02-08T06:50:16.522Z,15
2019-02-08T06:51:16.747Z,15
2019-02-08T06:52:17.124Z,15
2019-02-08T06:53:16.955Z,15
2019-02-08T06:54:16.934Z,15
2019-02-08T06:55:20.149Z,15
2019-02-08T06:56:16.902Z,15
2019-02-08T06:57:16.439Z,20
2019-02-08T06:58:17.272Z,20
2019-02-08T06:59:16.854Z,20
2019-02-08T07:00:16.844Z,20
2019-02-08T07:01:16.827Z,20
2019-02-08T07:02:16.803Z,25
2019-02-08T07:03:16.582Z,25
2019-02-08T07:04:16.514Z,25
2019-02-08T07:05:16.742Z,25
2019-02-08T07:06:16.733Z,25
2019-02-08T07:07:16.731Z,25
2019-02-08T07:08:16.695Z,30
2019-02-08T07:09:16.420Z,30
2019-02-08T07:10:16.668Z,30
2019-02-08T07:11:16.417Z,30
2019-02-08T07:12:16.627Z,35
2019-02-08T07:13:16.622Z,35
2019-02-08T07:14:16.584Z,40
2019-02-08T07:15:16.574Z,40
2019-02-08T07:16:16.567Z,40
2019-02-08T07:17:16.533Z,40
2019-02-08T07:18:16.262Z,40
2019-02-08T07:19:16.248Z,45
2019-02-08T07:20:16.230Z,50
2019-02-08T07:21:16.460Z,55
2019-02-08T07:22:16.439Z,55
2019-02-08T07:23:16.433Z,55
2019-02-08T07:24:16.166Z,65
2019-02-08T07:25:23.350Z,65
2019-02-08T07:26:16.388Z,55
2019-02-08T07:27:16.362Z,60
2019-02-08T07:28:16.339Z,70
2019-02-08T07:29:16.325Z,60
2019-02-08T07:30:16.324Z,60
2019-02-08T07:31:16.286Z,60
2019-02-08T07:32:16.025Z,65
2019-02-08T07:33:16.263Z,75
2019-02-08T07:34:16.250Z,70
2019-02-08T07:35:16.254Z,70
2019-02-08T07:36:16.203Z,75
2019-02-08T07:37:16.226Z,80
2019-02-08T07:38:16.215Z,80
2019-02-08T07:39:16.152Z,80
2019-02-08T07:40:16.126Z,80
2019-02-08T07:41:15.874Z,75
2019-02-08T07:42:15.856Z,90
2019-02-08T07:43:16.156Z,90
2019-02-08T07:44:16.071Z,85
2019-02-08T07:45:15.802Z,80
2019-02-08T07:46:16.031Z,95
2019-02-08T07:47:15.763Z,115
2019-02-08T07:48:15.996Z,110
2019-02-08T07:49:15.730Z,90
2019-02-08T07:50:15.463Z,95
2019-02-08T07:51:15.694Z,110
2019-02-08T07:52:15.436Z,130
2019-02-08T07:53:15.908Z,140
2019-02-08T07:54:15.895Z,145
2019-02-08T07:55:15.682Z,120
2019-02-08T07:56:15.619Z,110
2019-02-08T07:57:15.840Z,120
2019-02-08T07:58:15.836Z,120
2019-02-08T07:59:15.811Z,115
2019-02-08T08:00:15.807Z,110
2019-02-08T08:01:15.798Z,140
2019-02-08T08:02:16.820Z,155
2019-02-08T08:03:15.748Z,165
2019-02-08T08:04:15.722Z,160
2019-02-08T08:05:15.470Z,185
2019-02-08T08:06:15.453Z,170
2019-02-08T08:07:15.675Z,155
2019-02-08T08:08:15.664Z,165
2019-02-08T08:09:15.393Z,200
2019-02-08T08:10:15.629Z,210
2019-02-08T08:11:15.635Z,185
2019-02-08T08:12:15.606Z,165
2019-02-08T08:13:15.335Z,175
2019-02-08T08:14:15.564Z,165
2019-02-08T08:15:15.304Z,155
2019-02-08T08:16:15.527Z,150
2019-02-08T08:17:15.518Z,165
2019-02-08T08:18:15.495Z,165
2019-02-08T08:19:15.967Z,160
2019-02-08T08:20:15.464Z,170
2019-02-08T08:21:15.013Z,175
2019-02-08T08:22:15.479Z,175
2019-02-08T08:23:15.188Z,170
2019-02-08T08:24:15.399Z,160
2019-02-08T08:25:15.390Z,170
2019-02-08T08:26:15.372Z,220
2019-02-08T08:27:15.361Z,215
2019-02-08T08:28:15.373Z,220
2019-02-08T08:29:15.315Z,195
2019-02-08T08:30:15.343Z,205
2019-02-08T08:31:15.299Z,200
2019-02-08T08:32:15.270Z,195
2019-02-08T08:33:15.247Z,185
2019-02-08T08:34:15.255Z,190
2019-02-08T08:35:15.218Z,205
2019-02-08T08:36:15.208Z,215
2019-02-08T08:37:15.185Z,200
2019-02-08T08:38:15.172Z,215
2019-02-08T08:39:14.913Z,215
2019-02-08T08:40:14.882Z,185
2019-02-08T08:41:14.867Z,180
2019-02-08T08:42:15.114Z,195
2019-02-08T08:43:15.285Z,215
2019-02-08T08:44:15.086Z,235
2019-02-08T08:45:14.837Z,245
2019-02-08T08:46:14.804Z,265
2019-02-08T08:47:14.788Z,305
2019-02-08T08:48:15.014Z,275
2019-02-08T08:49:15.029Z,275
2019-02-08T08:50:14.976Z,255
2019-02-08T08:51:14.962Z,265
2019-02-08T08:52:15.032Z,270
2019-02-08T08:53:14.934Z,280
2019-02-08T08:54:14.915Z,300
2019-02-08T08:55:14.900Z,305
2019-02-08T08:56:14.887Z,295
2019-02-08T08:57:14.870Z,315
2019-02-08T08:58:14.872Z,310
2019-02-08T08:59:14.845Z,320
2019-02-08T09:00:14.589Z,310
2019-02-08T09:01:14.808Z,320
2019-02-08T09:02:14.790Z,300
2019-02-08T09:03:14.782Z,295
2019-02-08T09:04:14.768Z,300
2019-02-08T09:05:14.751Z,345
2019-02-08T09:06:18.164Z,345
2019-02-08T09:07:22.964Z,340
2019-02-08T09:08:14.774Z,345
2019-02-08T09:09:14.695Z,370
2019-02-08T09:10:15.649Z,380
2019-02-08T09:11:14.169Z,375
2019-02-08T09:12:14.407Z,375
2019-02-08T09:13:21.805Z,390
2019-02-08T09:14:14.611Z,385
2019-02-08T09:15:14.589Z,380
2019-02-08T09:16:14.337Z,410
2019-02-08T09:17:14.565Z,370
2019-02-08T09:18:14.568Z,310
2019-02-08T09:19:14.540Z,300
2019-02-08T09:20:14.052Z,330
2019-02-08T09:21:14.517Z,435
2019-02-08T09:22:14.502Z,450
2019-02-08T09:23:14.237Z,430
2019-02-08T09:24:14.214Z,370
2019-02-08T09:25:14.468Z,380
2019-02-08T09:26:14.448Z,365
2019-02-08T09:27:13.932Z,360
2019-02-08T09:28:14.409Z,275
2019-02-08T09:29:14.407Z,240
2019-02-08T09:30:14.149Z,235
2019-02-08T09:31:14.126Z,245
2019-02-08T09:32:13.861Z,340
2019-02-08T09:33:14.346Z,390
2019-02-08T09:34:14.344Z,370
2019-02-08T09:35:14.063Z,350
2019-02-08T09:36:14.051Z,350
2019-02-08T09:37:14.294Z,400
2019-02-08T09:38:14.274Z,430
2019-02-08T09:39:14.262Z,375
2019-02-08T09:40:14.113Z,370
2019-02-08T09:41:13.990Z,395
2019-02-08T09:42:14.227Z,390
2019-02-08T09:43:13.970Z,380
2019-02-08T09:44:14.245Z,345
2019-02-08T09:45:14.758Z,330
2019-02-08T09:46:13.923Z,295
2019-02-08T09:47:13.907Z,285
2019-02-08T09:48:14.132Z,355
2019-02-08T09:49:14.131Z,385
2019-02-08T09:50:14.104Z,370
2019-02-08T09:51:13.847Z,370
2019-02-08T09:52:14.098Z,345
2019-02-08T09:53:14.074Z,280
2019-02-08T09:54:14.076Z,290
2019-02-08T09:55:14.052Z,340
2019-02-08T09:56:13.840Z,365
2019-02-08T09:57:14.033Z,380
2019-02-08T09:58:14.004Z,340
2019-02-08T09:59:13.991Z,360
2019-02-08T10:00:13.976Z,385
2019-02-08T10:01:13.975Z,340
2019-02-08T10:02:13.950Z,335
2019-02-08T10:03:13.976Z,310
2019-02-08T10:04:13.964Z,320
2019-02-08T10:05:13.655Z,370
2019-02-08T10:06:13.659Z,365
2019-02-08T10:07:13.875Z,345
2019-02-08T10:08:13.617Z,310
2019-02-08T10:09:13.853Z,320
2019-02-08T10:10:13.828Z,310
2019-02-08T10:11:13.823Z,290
2019-02-08T10:12:13.563Z,315
2019-02-08T10:13:13.799Z,305
2019-02-08T10:14:13.778Z,330
2019-02-08T10:15:13.768Z,320
2019-02-08T10:16:13.751Z,335
2019-02-08T10:17:13.745Z,340
2019-02-08T10:18:13.231Z,305
2019-02-08T10:19:13.701Z,315
2019-02-08T10:20:13.446Z,340
2019-02-08T10:21:13.692Z,360
2019-02-08T10:22:13.669Z,345
2019-02-08T10:23:13.653Z,305
2019-02-08T10:24:13.391Z,300
2019-02-08T10:25:13.629Z,300
2019-02-08T10:26:15.072Z,295
2019-02-08T10:27:13.346Z,300
2019-02-08T10:28:13.582Z,315
2019-02-08T10:29:13.324Z,300
2019-02-08T10:30:13.555Z,305
2019-02-08T10:31:13.533Z,305
2019-02-08T10:32:13.519Z,325
2019-02-08T10:33:13.276Z,370
2019-02-08T10:34:13.244Z,310
2019-02-08T10:35:13.482Z,380
2019-02-08T10:36:13.207Z,330
2019-02-08T10:37:13.448Z,350
2019-02-08T10:38:13.455Z,320
2019-02-08T10:39:13.170Z,275
2019-02-08T10:40:12.913Z,255
2019-02-08T10:41:13.390Z,260
2019-02-08T10:42:13.373Z,260
2019-02-08T10:43:13.400Z,290
2019-02-08T10:44:13.348Z,280
2019-02-08T10:45:13.083Z,320
2019-02-08T10:46:13.072Z,270
2019-02-08T10:47:13.306Z,305
2019-02-08T10:48:13.296Z,275
2019-02-08T10:49:13.030Z,300
2019-02-08T10:50:13.019Z,330
2019-02-08T10:51:13.254Z,325
2019-02-08T10:52:13.241Z,305
2019-02-08T10:53:13.259Z,290
2019-02-08T10:54:12.964Z,205
2019-02-08T10:55:12.938Z,275
2019-02-08T10:56:21.920Z,325
2019-02-08T10:57:12.913Z,305
2019-02-08T10:58:13.145Z,310
2019-02-08T10:59:13.133Z,325
2019-02-08T11:00:13.264Z,435
2019-02-08T11:01:13.103Z,375
2019-02-08T11:02:12.840Z,355
2019-02-08T11:03:13.077Z,350
2019-02-08T11:04:12.806Z,335
2019-02-08T11:05:12.542Z,360
2019-02-08T11:06:13.039Z,360
2019-02-08T11:07:12.769Z,370
2019-02-08T11:08:12.753Z,335
2019-02-08T11:09:12.743Z,335
2019-02-08T11:10:12.967Z,325
2019-02-08T11:11:12.954Z,325
2019-02-08T11:12:12.943Z,355
2019-02-08T11:13:12.676Z,360
2019-02-08T11:14:12.670Z,345
2019-02-08T11:15:13.056Z,320
2019-02-08T11:16:12.658Z,370
2019-02-08T11:17:12.865Z,370
2019-02-08T11:18:12.857Z,345
2019-02-08T11:19:12.844Z,280
2019-02-08T11:20:12.598Z,330
2019-02-08T11:21:12.827Z,380
2019-02-08T11:22:12.555Z,390
2019-02-08T11:23:12.787Z,345
2019-02-08T11:24:12.766Z,330
2019-02-08T11:25:12.758Z,310
2019-02-08T11:26:12.740Z,320
2019-02-08T11:27:12.481Z,320
2019-02-08T11:28:12.704Z,295
2019-02-08T11:29:12.454Z,350
2019-02-08T11:30:12.682Z,320
2019-02-08T11:31:12.700Z,420
2019-02-08T11:32:12.416Z,350
2019-02-08T11:33:12.644Z,365
2019-02-08T11:34:12.623Z,240
2019-02-08T11:35:12.616Z,245
2019-02-08T11:36:12.596Z,245
2019-02-08T11:37:12.592Z,230
2019-02-08T11:38:12.577Z,180
2019-02-08T11:39:12.553Z,220
2019-02-08T11:40:12.299Z,260
2019-02-08T11:41:12.525Z,285
2019-02-08T11:42:12.513Z,240
2019-02-08T11:43:12.504Z,195
2019-02-08T11:44:12.237Z,195
2019-02-08T11:45:12.484Z,190
2019-02-08T11:46:12.456Z,150
2019-02-08T11:47:12.436Z,195
2019-02-08T11:48:12.191Z,185
2019-02-08T11:49:12.416Z,245
2019-02-08T11:50:12.398Z,275
2019-02-08T11:51:12.387Z,300
2019-02-08T11:52:12.392Z,265
2019-02-08T11:53:12.353Z,200
2019-02-08T11:54:12.086Z,255
2019-02-08T11:55:12.332Z,255
2019-02-08T11:56:12.315Z,230
2019-02-08T11:57:12.050Z,235
2019-02-08T11:58:12.047Z,225
2019-02-08T11:59:11.771Z,240
2019-02-08T12:00:12.258Z,260
2019-02-08T12:01:11.988Z,220
2019-02-08T12:02:12.224Z,210
2019-02-08T12:03:11.969Z,250
2019-02-08T12:04:12.203Z,245
2019-02-08T12:05:12.180Z,250
2019-02-08T12:06:12.183Z,275
2019-02-08T12:07:12.154Z,265
2019-02-08T12:08:12.147Z,290
2019-02-08T12:09:12.125Z,305
2019-02-08T12:10:12.112Z,220
2019-02-08T12:11:12.110Z,260
2019-02-08T12:12:12.075Z,245
2019-02-08T12:13:12.070Z,250
2019-02-08T12:14:12.054Z,255
2019-02-08T12:15:11.795Z,240
2019-02-08T12:16:12.081Z,250
2019-02-08T12:17:12.037Z,245
2019-02-08T12:18:11.998Z,210
2019-02-08T12:19:11.977Z,205
2019-02-08T12:20:11.961Z,215
2019-02-08T12:21:11.949Z,225
2019-02-08T12:22:11.941Z,210
2019-02-08T12:23:11.920Z,195
2019-02-08T12:24:11.923Z,180
2019-02-08T12:25:11.894Z,185
2019-02-08T12:26:11.896Z,195
2019-02-08T12:27:11.869Z,175
2019-02-08T12:28:11.615Z,170
2019-02-08T12:29:11.840Z,165
2019-02-08T12:30:11.820Z,160
2019-02-08T12:31:11.810Z,160
2019-02-08T12:32:11.800Z,160
2019-02-08T12:33:11.807Z,160
2019-02-08T12:34:11.525Z,160
2019-02-08T12:35:11.502Z,160
2019-02-08T12:36:11.737Z,165
2019-02-08T12:37:11.726Z,180
2019-02-08T12:38:11.706Z,150
2019-02-08T12:39:12.198Z,145
2019-02-08T12:40:11.444Z,180
2019-02-08T12:41:19.913Z,245
2019-02-08T12:42:11.653Z,230
2019-02-08T12:43:11.387Z,240
2019-02-08T12:44:11.632Z,230
2019-02-08T12:45:11.606Z,190
2019-02-08T12:46:11.339Z,170
2019-02-08T12:47:11.336Z,180
2019-02-08T12:48:11.312Z,180
2019-02-08T12:49:11.556Z,160
2019-02-08T12:50:11.551Z,145
2019-02-08T12:51:11.515Z,155
2019-02-08T12:52:11.251Z,140
2019-02-08T12:53:11.237Z,135
2019-02-08T12:54:11.481Z,145
2019-02-08T12:55:11.483Z,170
2019-02-08T12:56:11.196Z,205
2019-02-08T12:57:11.428Z,260
2019-02-08T12:58:11.437Z,355
2019-02-08T12:59:11.402Z,270
2019-02-08T13:00:11.394Z,220
2019-02-08T13:01:11.367Z,245
2019-02-08T13:02:11.356Z,240
2019-02-08T13:03:11.103Z,220
2019-02-08T13:04:12.714Z,230
2019-02-08T13:05:11.312Z,175
2019-02-08T13:06:11.295Z,140
2019-02-08T13:07:12.748Z,135
2019-02-08T13:08:11.256Z,140
2019-02-08T13:09:11.247Z,140
2019-02-08T13:10:11.238Z,125
2019-02-08T13:11:11.228Z,130
2019-02-08T13:12:10.965Z,150
2019-02-08T13:13:11.201Z,165
2019-02-08T13:14:11.209Z,140
2019-02-08T13:15:11.164Z,140
2019-02-08T13:16:11.147Z,135
2019-02-08T13:17:10.887Z,140
2019-02-08T13:18:10.880Z,150
2019-02-08T13:19:10.862Z,160
2019-02-08T13:20:11.098Z,145
2019-02-08T13:21:11.073Z,160
2019-02-08T13:22:11.109Z,170
2019-02-08T13:23:10.803Z,245
2019-02-08T13:24:11.050Z,185
2019-02-08T13:25:10.782Z,195
2019-02-08T13:26:10.991Z,170
2019-02-08T13:27:10.723Z,155
2019-02-08T13:28:10.721Z,130
2019-02-08T13:29:10.950Z,140
2019-02-08T13:30:10.698Z,190
2019-02-08T13:31:10.923Z,160
2019-02-08T13:32:10.917Z,145
2019-02-08T13:33:10.401Z,140
2019-02-08T13:34:10.884Z,125
2019-02-08T13:35:11.370Z,125
2019-02-08T13:36:10.602Z,120
2019-02-08T13:37:10.882Z,120
2019-02-08T13:38:10.569Z,115
2019-02-08T13:39:10.807Z,120
2019-02-08T13:40:10.293Z,125
2019-02-08T13:41:10.526Z,120
2019-02-08T13:42:10.856Z,120
2019-02-08T13:43:10.248Z,120
2019-02-08T13:44:10.243Z,125
2019-02-08T13:45:09.972Z,130
2019-02-08T13:46:10.452Z,125
2019-02-08T13:47:11.001Z,125
2019-02-08T13:48:10.421Z,125
2019-02-08T13:49:10.661Z,125
2019-02-08T13:50:10.661Z,125
2019-02-08T13:51:10.641Z,120
2019-02-08T13:52:10.614Z,125
2019-02-08T13:53:10.595Z,120
2019-02-08T13:54:10.572Z,120
2019-02-08T13:55:10.319Z,120
2019-02-08T13:56:10.545Z,120
2019-02-08T13:57:10.577Z,115
2019-02-08T13:58:11.019Z,115
2019-02-08T13:59:10.024Z,115
2019-02-08T14:00:10.489Z,115
2019-02-08T14:01:10.228Z,115
2019-02-08T14:02:10.495Z,115
2019-02-08T14:03:10.202Z,110
2019-02-08T14:04:11.827Z,110
2019-02-08T14:05:10.417Z,110
2019-02-08T14:06:10.397Z,110
2019-02-08T14:07:10.393Z,110
2019-02-08T14:08:10.112Z,110
2019-02-08T14:09:10.357Z,110
2019-02-08T14:10:11.591Z,110
2019-02-08T14:11:10.317Z,110
2019-02-08T14:12:10.301Z,110
2019-02-08T14:13:10.286Z,110
2019-02-08T14:14:12.082Z,110
2019-02-08T14:15:10.013Z,110